Time;durP1;ratioP1;P1;durP2;ratioP2;P2;SDS_P1;SDS_P2;PMS_P1;PMS_P2;Temp;Humidity;BMP_temperature;BMP_pressure;BME280_temperature;BME280_humidity;BME280_pressure;Samples;Min_cycle;Max_cycle;Signal;HPM_P1;HPM_P2
2023/06/08 00:02:10;;;;;;;7.70;7.10;;;18.50;99.90;;;;;;4987202;28;20285;-54
2023/06/08 00:04:40;;;;;;;6.73;6.23;;;18.40;99.90;;;;;;5004893;28;20657;-54
2023/06/08 00:07:09;;;;;;;7.00;6.43;;;18.20;99.90;;;;;;5000522;28;20582;-55
2023/06/08 00:09:37;;;;;;;7.90;7.20;;;18.10;99.90;;;;;;4994469;28;20200;-54
2023/06/08 00:12:05;;;;;;;6.50;6.00;;;18.00;99.90;;;;;;4992082;28;20220;-54
2023/06/08 00:14:34;;;;;;;7.07;6.50;;;18.00;99.90;;;;;;4993185;28;20211;-54
2023/06/08 00:17:03;;;;;;;7.07;6.50;;;17.90;99.90;;;;;;4990763;28;20607;-54
2023/06/08 00:19:30;;;;;;;6.50;6.00;;;17.80;99.90;;;;;;4999180;28;20575;-54
2023/06/08 00:21:58;;;;;;;6.53;6.13;;;17.70;99.90;;;;;;5001878;28;20306;-55
2023/06/08 00:24:25;;;;;;;6.83;6.33;;;17.70;99.90;;;;;;5005289;28;20673;-54
2023/06/08 00:26:52;;;;;;;7.07;6.33;;;17.70;99.90;;;;;;4993659;28;20670;-54
2023/06/08 00:29:20;;;;;;;6.67;6.27;;;17.70;99.90;;;;;;4995052;28;20278;-54
2023/06/08 00:31:47;;;;;;;5.70;5.33;;;17.80;99.90;;;;;;5004687;28;20223;-54
2023/06/08 00:34:16;;;;;;;6.03;5.60;;;17.80;99.90;;;;;;5004212;28;20563;-54
2023/06/08 00:36:42;;;;;;;7.87;6.13;;;17.80;99.90;;;;;;4995487;28;20784;-54
2023/06/08 00:39:09;;;;;;;5.37;5.07;;;17.80;99.90;;;;;;4992864;28;20736;-54
2023/06/08 00:41:37;;;;;;;6.60;5.90;;;17.80;99.90;;;;;;4984296;28;20286;-54
2023/06/08 00:44:06;;;;;;;6.07;5.67;;;17.70;99.90;;;;;;4986450;28;20327;-54
2023/06/08 00:46:34;;;;;;;5.70;5.30;;;17.70;99.90;;;;;;4992852;28;20724;-54
2023/06/08 00:49:02;;;;;;;6.47;6.07;;;17.60;99.90;;;;;;4999883;28;20847;-54
2023/06/08 00:51:34;;;;;;;6.20;5.77;;;17.50;99.90;;;;;;4991440;28;20358;-54
2023/06/08 00:54:02;;;;;;;6.53;5.93;;;17.50;99.90;;;;;;4993844;28;20802;-54
2023/06/08 00:56:31;;;;;;;6.33;5.83;;;17.50;99.90;;;;;;4990296;28;20207;-54
2023/06/08 00:59:00;;;;;;;5.93;5.53;;;17.40;99.90;;;;;;4991269;28;20200;-54
2023/06/08 01:01:29;;;;;;;5.70;5.07;;;17.40;99.90;;;;;;4998011;28;20252;-54
2023/06/08 01:04:05;;;;;;;5.93;5.43;;;17.30;99.90;;;;;;4991318;28;20254;-55
2023/06/08 01:06:35;;;;;;;6.27;5.87;;;17.20;99.90;;;;;;4990273;28;20246;-54
2023/06/08 01:09:14;;;;;;;6.20;5.83;;;17.20;99.90;;;;;;4991231;28;20231;-54
2023/06/08 01:12:02;;;;;;;6.37;5.97;;;17.10;99.90;;;;;;4992923;28;20219;-54
2023/06/08 01:14:38;;;;;;;6.67;6.27;;;17.10;99.90;;;;;;4991363;28;20204;-54
2023/06/08 01:17:09;;;;;;;6.50;5.90;;;17.20;99.90;;;;;;4995556;28;20257;-54
2023/06/08 01:19:52;;;;;;;6.03;5.63;;;17.20;99.90;;;;;;4999427;28;20200;-54
2023/06/08 01:22:29;;;;;;;6.20;5.80;;;17.30;99.90;;;;;;4978541;28;20705;-55
2023/06/08 01:24:59;;;;;;;6.60;6.20;;;17.30;99.90;;;;;;4999480;28;20203;-55
2023/06/08 01:27:29;;;;;;;5.60;5.30;;;17.40;99.90;;;;;;4998497;28;20262;-55
2023/06/08 01:29:56;;;;;;;6.17;5.77;;;17.40;99.90;;;;;;5000701;28;20220;-54
2023/06/08 01:32:23;;;;;;;6.37;5.97;;;17.40;99.90;;;;;;4992183;28;20733;-54
2023/06/08 01:34:50;;;;;;;5.90;5.60;;;17.40;99.90;;;;;;5004546;28;20557;-54
2023/06/08 01:37:27;;;;;;;5.90;5.60;;;17.40;99.90;;;;;;4991145;28;20208;-54
2023/06/08 01:40:03;;;;;;;6.07;5.67;;;17.40;99.90;;;;;;4982456;28;20263;-54
2023/06/08 01:42:31;;;;;;;6.60;6.20;;;17.40;99.90;;;;;;4993727;28;20708;-54
2023/06/08 01:45:01;;;;;;;5.57;5.27;;;17.30;99.90;;;;;;4992502;28;20203;-54
2023/06/08 01:47:34;;;;;;;7.53;6.97;;;17.20;99.90;;;;;;4997538;28;20583;-54
2023/06/08 01:50:03;;;;;;;7.10;6.70;;;17.10;99.90;;;;;;4998824;28;21274;-55
2023/06/08 01:52:30;;;;;;;6.57;6.07;;;16.90;99.90;;;;;;5010075;23;20305;-56
2023/06/08 01:54:58;;;;;;;6.60;6.27;;;16.90;99.90;;;;;;4987682;28;20203;-56
2023/06/08 01:57:25;;;;;;;7.57;6.87;;;16.80;99.90;;;;;;4989782;28;20613;-56
2023/06/08 01:59:52;;;;;;;5.80;5.40;;;16.70;99.90;;;;;;4990500;28;20666;-56
2023/06/08 02:02:19;;;;;;;5.83;5.30;;;16.70;99.90;;;;;;4988786;28;20293;-56
2023/06/08 02:04:46;;;;;;;6.37;5.90;;;16.70;99.90;;;;;;4990751;28;20202;-56
2023/06/08 02:07:16;;;;;;;5.53;5.23;;;16.60;99.90;;;;;;4989274;28;20376;-56
2023/06/08 02:09:43;;;;;;;6.30;5.63;;;16.60;99.90;;;;;;4987634;28;20215;-56
2023/06/08 02:12:11;;;;;;;6.67;6.17;;;16.60;99.90;;;;;;4989090;28;20231;-56
2023/06/08 02:14:40;;;;;;;7.47;6.87;;;16.50;99.90;;;;;;4990782;28;20732;-56
2023/06/08 02:17:07;;;;;;;7.43;6.73;;;16.40;99.90;;;;;;4986039;28;20199;-56
2023/06/08 02:19:34;;;;;;;6.87;6.43;;;16.30;99.90;;;;;;4985533;28;20295;-56
2023/06/08 02:22:01;;;;;;;6.90;6.33;;;16.20;99.90;;;;;;4987647;28;20285;-57
2023/06/08 02:24:29;;;;;;;6.30;5.80;;;16.20;99.90;;;;;;4987879;28;20207;-57
2023/06/08 02:26:56;;;;;;;6.30;5.90;;;16.10;99.90;;;;;;4990606;28;20556;-56
2023/06/08 02:29:26;;;;;;;6.20;5.80;;;16.10;99.90;;;;;;4988174;28;20656;-56
2023/06/08 02:31:53;;;;;;;5.97;5.57;;;16.00;99.90;;;;;;4983988;28;20231;-56
2023/06/08 02:34:20;;;;;;;7.63;6.93;;;16.00;99.90;;;;;;4989896;28;20207;-56
2023/06/08 02:36:51;;;;;;;7.37;6.87;;;16.00;99.90;;;;;;4989069;28;20673;-56
2023/06/08 02:39:18;;;;;;;6.47;6.07;;;15.90;99.90;;;;;;4992702;28;20196;-56
2023/06/08 02:41:45;;;;;;;5.93;5.63;;;15.90;99.90;;;;;;4991511;28;20228;-56
2023/06/08 02:44:12;;;;;;;6.30;5.73;;;15.90;99.90;;;;;;4993559;28;20199;-56
2023/06/08 02:46:40;;;;;;;6.87;6.37;;;16.00;99.90;;;;;;4989595;28;20278;-56
2023/06/08 02:49:07;;;;;;;6.43;6.03;;;16.00;99.90;;;;;;4981148;28;20220;-56
2023/06/08 02:51:35;;;;;;;7.03;6.37;;;16.00;99.90;;;;;;4988823;28;20196;-56
2023/06/08 02:54:02;;;;;;;5.83;5.33;;;15.90;99.90;;;;;;4992786;28;20891;-56
2023/06/08 02:56:29;;;;;;;6.03;5.40;;;16.00;99.90;;;;;;4993175;28;20204;-56
2023/06/08 02:58:56;;;;;;;5.80;5.40;;;16.00;99.90;;;;;;4992373;28;20258;-56
2023/06/08 03:01:23;;;;;;;6.87;5.37;;;16.10;99.90;;;;;;4984627;28;20204;-56
2023/06/08 03:03:52;;;;;;;5.80;5.27;;;16.30;99.90;;;;;;4985637;28;20333;-56
2023/06/08 03:06:19;;;;;;;5.57;5.10;;;16.40;99.90;;;;;;4992256;28;20724;-56
2023/06/08 03:08:47;;;;;;;5.30;4.97;;;16.40;99.90;;;;;;4983316;28;20290;-57
2023/06/08 03:11:15;;;;;;;5.50;4.67;;;16.50;99.90;;;;;;4993162;28;20686;-56
2023/06/08 03:13:42;;;;;;;4.30;4.00;;;16.60;99.90;;;;;;4984109;28;20689;-56
2023/06/08 03:16:10;;;;;;;4.30;4.07;;;16.70;99.90;;;;;;4987023;28;20200;-56
2023/06/08 03:18:37;;;;;;;5.40;5.10;;;16.80;99.90;;;;;;4985581;28;20241;-56
2023/06/08 03:21:08;;;;;;;5.27;4.87;;;16.90;99.90;;;;;;4991786;28;20266;-57
2023/06/08 03:23:37;;;;;;;5.20;4.80;;;16.80;99.90;;;;;;4987763;28;20224;-56
2023/06/08 03:26:04;;;;;;;6.00;5.53;;;16.80;99.90;;;;;;4988220;28;20262;-56
2023/06/08 03:28:31;;;;;;;6.30;5.80;;;16.60;99.90;;;;;;4989775;28;20220;-56
2023/06/08 03:30:59;;;;;;;7.70;5.70;;;16.60;99.90;;;;;;4988089;28;20743;-56
2023/06/08 03:33:26;;;;;;;5.27;5.03;;;16.50;99.90;;;;;;4986591;28;20297;-56
2023/06/08 03:35:54;;;;;;;5.47;4.97;;;16.50;99.90;;;;;;4992271;28;20204;-57
2023/06/08 03:38:22;;;;;;;5.33;5.03;;;16.50;99.90;;;;;;4990788;28;20618;-56
2023/06/08 03:40:49;;;;;;;4.97;4.57;;;16.40;99.90;;;;;;4993464;28;20208;-56
2023/06/08 03:43:16;;;;;;;4.93;4.60;;;16.40;99.90;;;;;;4986996;28;20224;-57
2023/06/08 03:45:43;;;;;;;3.63;3.43;;;16.40;99.90;;;;;;4980430;28;20201;-57
2023/06/08 03:48:10;;;;;;;5.03;4.70;;;16.40;99.90;;;;;;4985299;28;20623;-56
2023/06/08 03:50:37;;;;;;;5.20;4.90;;;16.40;99.90;;;;;;4987117;28;20216;-56
2023/06/08 03:53:04;;;;;;;4.97;4.47;;;16.40;99.90;;;;;;4991480;28;20655;-56
2023/06/08 03:55:32;;;;;;;4.30;4.10;;;16.40;99.90;;;;;;4985963;28;20208;-56
2023/06/08 03:58:00;;;;;;;4.77;4.53;;;16.40;99.90;;;;;;4988658;28;20732;-56
2023/06/08 04:00:28;;;;;;;8.00;6.17;;;16.40;99.90;;;;;;4987514;28;20292;-57
2023/06/08 04:02:55;;;;;;;4.47;4.27;;;16.40;99.90;;;;;;4992819;28;20232;-57
2023/06/08 04:05:22;;;;;;;6.50;6.00;;;16.50;99.90;;;;;;4991336;28;20203;-56
2023/06/08 04:07:50;;;;;;;6.57;6.17;;;16.50;99.90;;;;;;4992597;28;20262;-56
2023/06/08 04:10:17;;;;;;;5.97;5.37;;;16.60;99.90;;;;;;4986367;28;20227;-56
2023/06/08 04:12:46;;;;;;;5.50;5.10;;;16.60;99.90;;;;;;4989260;28;20228;-57
2023/06/08 04:15:13;;;;;;;5.97;5.40;;;16.60;99.90;;;;;;4991046;28;20263;-56
2023/06/08 04:17:42;;;;;;;4.87;4.50;;;16.60;99.90;;;;;;4984696;28;20199;-56
2023/06/08 04:20:11;;;;;;;5.77;5.37;;;16.60;99.90;;;;;;4974666;28;20232;-56
2023/06/08 04:22:38;;;;;;;5.20;4.70;;;16.60;99.90;;;;;;4986499;28;20290;-57
2023/06/08 04:25:06;;;;;;;4.70;4.13;;;16.70;99.90;;;;;;4991677;28;20212;-56
2023/06/08 04:27:34;;;;;;;5.00;4.63;;;16.80;99.90;;;;;;4990645;28;20576;-56
2023/06/08 04:30:03;;;;;;;4.73;4.40;;;16.80;99.90;;;;;;4988971;28;20220;-56
2023/06/08 04:32:31;;;;;;;4.33;4.03;;;16.90;99.90;;;;;;4992281;28;20216;-56
2023/06/08 04:34:58;;;;;;;4.03;3.83;;;17.10;99.90;;;;;;4989032;28;20203;-56
2023/06/08 04:37:25;;;;;;;4.23;3.87;;;17.10;99.90;;;;;;4991984;28;20262;-56
2023/06/08 04:39:52;;;;;;;3.93;3.73;;;17.20;99.90;;;;;;4991939;28;20203;-56
2023/06/08 04:42:19;;;;;;;3.93;3.63;;;17.30;99.90;;;;;;4985116;28;20221;-56
2023/06/08 04:44:46;;;;;;;4.53;4.30;;;17.30;99.90;;;;;;4989089;28;20199;-56
2023/06/08 04:47:18;;;;;;;6.47;5.87;;;17.40;99.90;;;;;;4992214;28;20203;-56
2023/06/08 04:49:45;;;;;;;6.60;5.93;;;17.50;99.90;;;;;;4990507;28;20270;-56
2023/06/08 04:52:16;;;;;;;5.83;5.43;;;17.60;99.90;;;;;;4981652;28;20285;-56
2023/06/08 04:54:44;;;;;;;5.23;4.93;;;17.70;99.90;;;;;;4987028;28;20292;-56
2023/06/08 04:57:16;;;;;;;5.53;5.10;;;17.80;99.90;;;;;;4990729;28;20210;-56
2023/06/08 04:59:43;;;;;;;6.27;4.63;;;17.80;99.90;;;;;;4991788;28;20191;-56
2023/06/08 05:02:10;;;;;;;5.67;5.13;;;17.80;99.90;;;;;;4991507;28;20911;-56
2023/06/08 05:04:39;;;;;;;7.10;6.60;;;18.00;99.90;;;;;;4991042;28;20255;-56
2023/06/08 05:07:09;;;;;;;6.57;6.07;;;18.20;99.90;;;;;;4983716;28;20200;-56
2023/06/08 05:09:36;;;;;;;6.23;5.83;;;18.30;99.90;;;;;;4991111;28;20246;-56
2023/06/08 05:12:03;;;;;;;6.67;6.00;;;18.40;99.90;;;;;;4987651;28;20289;-56
2023/06/08 05:14:30;;;;;;;6.20;5.70;;;18.80;99.90;;;;;;4986156;28;20278;-56
2023/06/08 05:16:57;;;;;;;6.50;5.93;;;19.50;99.90;;;;;;4991166;28;20621;-56
2023/06/08 05:19:24;;;;;;;6.77;6.13;;;20.20;99.90;;;;;;4991231;28;20204;-56
2023/06/08 05:21:53;;;;;;;6.20;5.73;;;20.80;99.90;;;;;;4991392;28;20224;-56
2023/06/08 05:24:20;;;;;;;6.43;5.93;;;21.50;99.90;;;;;;4991354;28;20243;-57
2023/06/08 05:26:47;;;;;;;5.67;5.20;;;22.00;99.90;;;;;;4989606;28;20463;-56
2023/06/08 05:29:14;;;;;;;5.17;4.87;;;22.50;99.90;;;;;;4982522;28;20563;-59
2023/06/08 05:31:41;;;;;;;5.77;5.40;;;23.00;99.90;;;;;;4990919;28;20215;-60
2023/06/08 05:34:08;;;;;;;5.40;5.00;;;23.50;99.90;;;;;;4990789;28;20243;-60
2023/06/08 05:36:35;;;;;;;4.37;3.97;;;23.90;99.90;;;;;;4991008;28;20196;-60
2023/06/08 05:39:04;;;;;;;4.37;3.67;;;24.40;99.90;;;;;;4990956;28;20297;-60
2023/06/08 05:41:31;;;;;;;4.27;4.07;;;24.90;99.90;;;;;;4990681;28;20208;-60
2023/06/08 05:43:58;;;;;;;3.57;3.27;;;25.30;99.90;;;;;;4983567;28;20277;-59
2023/06/08 05:46:25;;;;;;;4.03;3.73;;;25.60;99.90;;;;;;4990641;28;20253;-61
2023/06/08 05:48:52;;;;;;;3.67;3.47;;;25.80;99.50;;;;;;4990897;28;20207;-61
2023/06/08 05:51:20;;;;;;;4.87;4.33;;;25.50;99.90;;;;;;4989712;28;20661;-60
2023/06/08 05:53:47;;;;;;;3.47;3.37;;;25.60;99.90;;;;;;4986646;28;20200;-61
2023/06/08 05:56:15;;;;;;;3.70;3.50;;;25.60;99.60;;;;;;4990992;28;20210;-60
2023/06/08 05:58:42;;;;;;;4.33;4.07;;;25.60;99.30;;;;;;4988407;28;20744;-59
2023/06/08 06:01:10;;;;;;;3.83;3.53;;;26.10;98.90;;;;;;4989830;28;20227;-59
2023/06/08 06:03:37;;;;;;;4.00;3.80;;;26.60;98.80;;;;;;4982599;28;20263;-60
2023/06/08 06:06:04;;;;;;;4.60;4.30;;;26.90;98.40;;;;;;4990187;28;20254;-59
2023/06/08 06:08:32;;;;;;;3.87;3.50;;;26.90;98.10;;;;;;4991064;28;20252;-60
2023/06/08 06:10:59;;;;;;;4.33;4.10;;;27.20;97.80;;;;;;4981335;28;20220;-60
2023/06/08 06:13:27;;;;;;;4.47;4.07;;;27.40;96.70;;;;;;4989687;28;20235;-59
2023/06/08 06:15:54;;;;;;;4.20;3.93;;;27.20;96.10;;;;;;4986077;28;20331;-59
2023/06/08 06:18:21;;;;;;;3.77;3.33;;;27.00;97.60;;;;;;4990201;28;20216;-56
2023/06/08 06:20:48;;;;;;;4.37;3.83;;;27.00;96.70;;;;;;4979517;28;20251;-54
2023/06/08 06:23:15;;;;;;;4.43;4.03;;;27.40;96.70;;;;;;4989403;28;20219;-55
2023/06/08 06:25:42;;;;;;;3.80;3.60;;;27.50;95.50;;;;;;4990349;28;20251;-54
2023/06/08 06:28:09;;;;;;;7.87;4.70;;;27.70;96.40;;;;;;4990232;28;20271;-55
2023/06/08 06:30:37;;;;;;;4.27;4.07;;;28.00;95.10;;;;;;4989229;28;20760;-55
2023/06/08 06:33:04;;;;;;;3.83;3.63;;;28.20;95.60;;;;;;4990391;28;20258;-55
2023/06/08 06:35:31;;;;;;;3.92;3.72;;;28.10;94.30;;;;;;4990386;28;20215;-55
2023/06/08 06:37:58;;;;;;;4.32;4.07;;;28.50;94.10;;;;;;4990410;28;20204;-55
2023/06/08 06:40:25;;;;;;;3.63;3.42;;;28.70;93.60;;;;;;4991828;28;20192;-55
2023/06/08 06:42:52;;;;;;;3.55;3.45;;;28.50;92.70;;;;;;4988245;28;20224;-54
2023/06/08 06:45:19;;;;;;;3.70;3.60;;;28.10;92.90;;;;;;4983854;28;20203;-55
2023/06/08 06:47:47;;;;;;;3.60;3.40;;;28.60;92.60;;;;;;4989350;28;20231;-54
2023/06/08 06:50:14;;;;;;;4.95;3.78;;;27.90;93.20;;;;;;4990022;28;20266;-54
2023/06/08 06:52:41;;;;;;;4.07;3.83;;;27.60;93.50;;;;;;4989447;28;20234;-54
2023/06/08 06:55:08;;;;;;;5.72;3.83;;;27.80;94.70;;;;;;4982519;28;20254;-55
2023/06/08 06:57:36;;;;;;;4.20;3.90;;;28.60;95.60;;;;;;4988151;28;20302;-54
2023/06/08 07:00:07;;;;;;;4.57;4.07;;;29.10;93.40;;;;;;4982110;28;20188;-54
2023/06/08 07:02:37;;;;;;;3.78;3.63;;;29.10;91.60;;;;;;4989976;28;20259;-55
2023/06/08 07:05:07;;;;;;;4.55;4.35;;;29.60;93.10;;;;;;4980719;28;20254;-54
2023/06/08 07:07:34;;;;;;;3.80;3.50;;;29.70;93.70;;;;;;4977691;28;20232;-54
2023/06/08 07:10:01;;;;;;;4.55;4.10;;;29.80;92.50;;;;;;4978796;28;20240;-55
2023/06/08 07:12:30;;;;;;;3.80;3.70;;;30.00;93.20;;;;;;4969098;28;20231;-55
2023/06/08 07:14:57;;;;;;;4.10;3.90;;;29.90;90.90;;;;;;4982532;28;20208;-55
2023/06/08 07:17:23;;;;;;;4.07;3.92;;;29.90;89.80;;;;;;4984881;28;20203;-55
2023/06/08 07:19:52;;;;;;;4.68;4.38;;;29.70;90.30;;;;;;4988950;28;20216;-54
2023/06/08 07:22:21;;;;;;;3.78;3.50;;;29.70;89.20;;;;;;4988213;28;20223;-55
2023/06/08 07:24:48;;;;;;;4.78;3.42;;;29.40;89.40;;;;;;4987234;28;20585;-55
2023/06/08 07:27:18;;;;;;;3.78;3.47;;;28.80;90.30;;;;;;4993009;28;20273;-55
2023/06/08 07:29:45;;;;;;;3.70;3.60;;;29.60;89.40;;;;;;4993192;28;20266;-55
2023/06/08 07:32:15;;;;;;;4.10;3.90;;;30.30;89.90;;;;;;4986804;28;20788;-55
2023/06/08 07:34:42;;;;;;;4.97;4.60;;;29.50;85.80;;;;;;4987210;28;20796;-55
2023/06/08 07:37:09;;;;;;;4.00;3.70;;;29.90;90.80;;;;;;4989404;28;20204;-55
2023/06/08 07:39:38;;;;;;;5.30;4.80;;;30.00;89.60;;;;;;4987511;28;20612;-55
2023/06/08 07:42:05;;;;;;;3.72;3.63;;;30.00;88.20;;;;;;4990084;28;20235;-55
2023/06/08 07:44:32;;;;;;;4.45;4.15;;;30.50;91.20;;;;;;4988904;28;20204;-55
2023/06/08 07:47:00;;;;;;;3.42;3.22;;;31.00;86.20;;;;;;4990323;28;20212;-55
2023/06/08 07:49:29;;;;;;;4.55;3.22;;;30.80;84.20;;;;;;4990771;28;20253;-55
2023/06/08 07:51:56;;;;;;;4.13;3.92;;;31.30;87.10;;;;;;4989237;28;20808;-55
2023/06/08 07:54:23;;;;;;;3.58;3.42;;;31.00;82.30;;;;;;4988472;28;20589;-57
2023/06/08 07:56:52;;;;;;;3.85;3.63;;;31.10;88.20;;;;;;4989337;28;20204;-55
2023/06/08 07:59:19;;;;;;;3.80;3.55;;;31.30;87.10;;;;;;4988792;28;20258;-55
2023/06/08 08:01:46;;;;;;;2.95;2.75;;;31.00;88.40;;;;;;4991708;28;20706;-55
2023/06/08 08:04:13;;;;;;;4.38;4.22;;;31.30;85.80;;;;;;4988161;28;20259;-55
2023/06/08 08:06:40;;;;;;;4.20;4.00;;;30.60;83.50;;;;;;4990140;28;20254;-55
2023/06/08 08:09:07;;;;;;;5.28;5.00;;;31.20;87.50;;;;;;4991630;28;20227;-55
2023/06/08 08:11:34;;;;;;;3.95;3.85;;;31.40;87.50;;;;;;4987202;28;20224;-55
2023/06/08 08:14:02;;;;;;;5.45;4.55;;;31.60;86.60;;;;;;4990377;28;20531;-55
2023/06/08 08:16:29;;;;;;;4.22;4.13;;;31.40;82.30;;;;;;4991036;28;20610;-55
2023/06/08 08:18:56;;;;;;;4.85;4.57;;;30.60;83.80;;;;;;4985264;28;20235;-56
2023/06/08 08:21:23;;;;;;;4.65;4.25;;;30.70;84.30;;;;;;4990092;28;20196;-55
2023/06/08 08:23:50;;;;;;;7.15;6.80;;;31.10;90.00;;;;;;4991604;28;20203;-54
2023/06/08 08:26:17;;;;;;;6.90;6.28;;;31.00;90.40;;;;;;4988952;28;20266;-54
2023/06/08 08:28:44;;;;;;;6.13;5.82;;;31.30;88.50;;;;;;4990015;28;20208;-55
2023/06/08 08:31:13;;;;;;;6.18;5.72;;;30.90;91.50;;;;;;5009161;23;20757;-56
2023/06/08 08:33:40;;;;;;;6.50;6.10;;;31.60;90.10;;;;;;4991064;28;20204;-55
2023/06/08 08:36:07;;;;;;;7.18;6.78;;;31.00;90.30;;;;;;4992833;28;20274;-55
2023/06/08 08:38:35;;;;;;;6.65;6.20;;;30.60;93.00;;;;;;4991864;28;20204;-56
2023/06/08 08:41:06;;;;;;;6.78;6.38;;;30.30;91.10;;;;;;4986040;28;20326;-55
2023/06/08 08:43:40;;;;;;;7.32;6.82;;;29.50;90.60;;;;;;4995585;28;20200;-55
2023/06/08 08:46:08;;;;;;;6.90;6.30;;;29.70;91.00;;;;;;4991437;28;20287;-56
2023/06/08 08:48:43;;;;;;;6.43;5.90;;;30.00;91.90;;;;;;4990131;28;20208;-55
2023/06/08 08:51:18;;;;;;;6.35;5.68;;;30.60;92.00;;;;;;4985413;28;20697;-55
2023/06/08 08:53:46;;;;;;;6.82;6.40;;;30.40;90.90;;;;;;4989344;28;20696;-55
2023/06/08 08:56:15;;;;;;;6.75;6.30;;;30.50;89.60;;;;;;4991864;28;20286;-56
2023/06/08 08:58:48;;;;;;;6.95;6.55;;;30.10;90.00;;;;;;4993246;28;20250;-55
2023/06/08 09:01:16;;;;;;;6.43;5.97;;;30.10;90.60;;;;;;4990284;28;20223;-55
2023/06/08 09:03:44;;;;;;;6.45;6.05;;;30.10;90.60;;;;;;4991577;28;20693;-55
2023/06/08 09:06:11;;;;;;;6.13;5.72;;;29.80;89.10;;;;;;4991631;28;20658;-56
2023/06/08 09:08:38;;;;;;;5.88;5.57;;;30.00;89.70;;;;;;4989305;28;20262;-56
2023/06/08 09:11:09;;;;;;;6.57;6.18;;;30.40;90.10;;;;;;4992543;28;20313;-56
2023/06/08 09:13:37;;;;;;;5.60;5.30;;;30.90;84.10;;;;;;4986566;28;20936;-56
2023/06/08 09:16:14;;;;;;;6.25;5.88;;;31.60;82.10;;;;;;4983617;28;20215;-56
2023/06/08 09:18:42;;;;;;;6.40;5.72;;;31.20;87.40;;;;;;4992900;28;20200;-56
2023/06/08 09:21:23;;;;;;;5.97;5.57;;;30.90;85.90;;;;;;4990572;28;20228;-56
2023/06/08 09:24:12;;;;;;;7.28;6.70;;;31.00;86.10;;;;;;4982379;28;20201;-56
2023/06/08 09:26:45;;;;;;;6.30;5.85;;;30.40;86.20;;;;;;4988138;28;20207;-56
2023/06/08 09:29:13;;;;;;;7.18;6.50;;;31.10;86.10;;;;;;4988724;28;20211;-56
2023/06/08 09:31:50;;;;;;;5.60;5.30;;;31.20;88.50;;;;;;4990742;28;20228;-56
2023/06/08 09:34:17;;;;;;;6.70;6.20;;;30.80;87.50;;;;;;4973337;28;20208;-55
2023/06/08 09:36:49;;;;;;;6.97;6.47;;;30.70;84.10;;;;;;4983075;28;20894;-56
2023/06/08 09:39:16;;;;;;;7.22;6.82;;;31.10;88.20;;;;;;4983365;28;20215;-65
2023/06/08 09:41:56;;;;;;;5.93;5.65;;;30.10;86.70;;;;;;4987877;28;20216;-61
2023/06/08 09:44:23;;;;;;;5.78;5.28;;;30.20;84.80;;;;;;4978527;28;20678;-61
2023/06/08 09:46:50;;;;;;;5.38;5.05;;;30.70;87.10;;;;;;4994470;28;20731;-61
2023/06/08 09:49:19;;;;;;;5.15;4.95;;;30.70;90.70;;;;;;4992187;28;20242;-62
2023/06/08 09:51:51;;;;;;;6.03;5.72;;;30.70;88.30;;;;;;4987511;28;20232;-61
2023/06/08 09:54:19;;;;;;;7.22;6.72;;;30.70;84.00;;;;;;4989558;28;20254;-61
2023/06/08 09:56:49;;;;;;;6.25;5.43;;;30.80;86.60;;;;;;4983756;28;20217;-63
2023/06/08 09:59:17;;;;;;;5.90;5.63;;;31.10;85.60;;;;;;4985252;28;20662;-61
2023/06/08 10:01:49;;;;;;;5.63;5.28;;;31.30;89.30;;;;;;4989030;28;20228;-65
2023/06/08 10:04:32;;;;;;;6.20;5.75;;;31.90;84.60;;;;;;4991065;28;20731;-64
2023/06/08 10:07:03;;;;;;;5.20;4.80;;;31.80;83.50;;;;;;4988170;28;20737;-64
2023/06/08 10:09:35;;;;;;;5.95;5.35;;;31.20;82.50;;;;;;4992741;28;20251;-64
2023/06/08 10:12:02;;;;;;;5.63;5.40;;;31.20;83.70;;;;;;4990050;28;20793;-56
2023/06/08 10:14:30;;;;;;;6.55;5.95;;;30.30;83.40;;;;;;4989759;28;20625;-62
2023/06/08 10:16:58;;;;;;;4.97;4.80;;;30.10;83.20;;;;;;4991058;28;20208;-62
2023/06/08 10:19:25;;;;;;;5.55;5.15;;;30.30;83.60;;;;;;4991444;28;20207;-63
2023/06/08 10:21:54;;;;;;;5.40;5.00;;;30.70;86.30;;;;;;4989584;28;20848;-62
2023/06/08 10:24:24;;;;;;;4.70;4.50;;;30.70;81.10;;;;;;4989775;28;20290;-64
2023/06/08 10:26:51;;;;;;;4.75;4.60;;;30.50;80.50;;;;;;4988842;28;20240;-64
2023/06/08 10:29:28;;;;;;;4.70;4.50;;;30.70;83.40;;;;;;4994412;28;20206;-62
2023/06/08 10:31:55;;;;;;;4.20;3.88;;;30.00;83.80;;;;;;4987754;28;20251;-57
2023/06/08 10:34:21;;;;;;;4.63;4.45;;;30.10;82.60;;;;;;4991757;28;20221;-56
2023/06/08 10:36:48;;;;;;;5.18;4.88;;;30.00;89.20;;;;;;4990155;28;20215;-57
2023/06/08 10:39:17;;;;;;;5.07;4.82;;;29.70;86.80;;;;;;4989545;28;20551;-56
2023/06/08 10:41:53;;;;;;;5.00;4.65;;;29.80;87.10;;;;;;4991478;28;20278;-56
2023/06/08 10:44:29;;;;;;;4.78;4.55;;;29.50;84.10;;;;;;4990453;28;20696;-56
2023/06/08 10:47:01;;;;;;;4.63;4.32;;;29.30;88.60;;;;;;4988798;28;20578;-57
2023/06/08 10:49:32;;;;;;;5.50;5.15;;;29.90;84.70;;;;;;4992093;28;20251;-63
2023/06/08 10:52:00;;;;;;;5.30;4.95;;;29.60;87.90;;;;;;4993801;28;20307;-65
2023/06/08 10:54:28;;;;;;;5.00;4.25;;;29.20;87.90;;;;;;4991187;28;20206;-64
2023/06/08 10:56:58;;;;;;;4.97;4.68;;;29.20;88.30;;;;;;4994425;28;20208;-65
2023/06/08 10:59:35;;;;;;;5.80;5.50;;;28.60;87.20;;;;;;4987545;28;20196;-66
2023/06/08 11:02:04;;;;;;;4.72;4.45;;;28.70;87.40;;;;;;4992674;28;20220;-64
2023/06/08 11:04:32;;;;;;;5.90;5.38;;;28.90;89.20;;;;;;4991414;28;20227;-64
2023/06/08 11:07:01;;;;;;;5.45;5.10;;;28.70;85.70;;;;;;4994483;28;20297;-64
2023/06/08 11:09:31;;;;;;;5.22;4.82;;;28.70;90.40;;;;;;4995732;28;20281;-66
2023/06/08 11:11:59;;;;;;;5.03;4.82;;;28.20;88.70;;;;;;4994896;28;20275;-62
2023/06/08 11:14:27;;;;;;;5.93;4.65;;;28.10;90.10;;;;;;4994154;28;20262;-64
2023/06/08 11:16:55;;;;;;;5.95;5.65;;;28.10;90.80;;;;;;4992977;28;20204;-64
2023/06/08 11:19:22;;;;;;;5.18;4.88;;;28.40;91.30;;;;;;4992310;28;20199;-64
2023/06/08 11:21:52;;;;;;;6.38;5.75;;;28.60;90.00;;;;;;4991918;28;20220;-64
2023/06/08 11:24:19;;;;;;;6.80;5.07;;;28.40;90.80;;;;;;4987169;28;20270;-65
2023/06/08 11:26:46;;;;;;;5.85;5.55;;;28.50;89.20;;;;;;4994022;28;20204;-64
2023/06/08 11:29:15;;;;;;;5.15;4.85;;;28.30;85.50;;;;;;4992740;28;20208;-63
2023/06/08 11:31:42;;;;;;;6.13;5.70;;;28.30;90.80;;;;;;4994810;28;20224;-65
2023/06/08 11:34:13;;;;;;;5.47;5.05;;;28.50;90.40;;;;;;4993587;28;20375;-65
2023/06/08 11:36:42;;;;;;;5.45;5.15;;;28.40;90.90;;;;;;4993198;28;20204;-63
2023/06/08 11:39:10;;;;;;;5.47;5.18;;;28.50;88.00;;;;;;4986855;28;20200;-63
2023/06/08 11:41:37;;;;;;;5.50;5.10;;;28.60;91.80;;;;;;4992479;28;20231;-64
2023/06/08 11:44:05;;;;;;;5.38;5.18;;;28.70;90.70;;;;;;4992400;28;20208;-66
2023/06/08 11:46:34;;;;;;;5.60;5.22;;;28.60;90.60;;;;;;4993578;28;20204;-64
2023/06/08 11:49:10;;;;;;;5.95;5.57;;;28.30;91.60;;;;;;4990089;28;20204;-63
2023/06/08 11:51:48;;;;;;;5.45;5.15;;;28.00;91.60;;;;;;4993746;28;20223;-64
2023/06/08 11:54:15;;;;;;;5.65;5.10;;;27.90;93.20;;;;;;4985469;28;20290;-64
2023/06/08 11:56:45;;;;;;;5.40;5.20;;;27.80;93.10;;;;;;4992621;28;20207;-63
2023/06/08 11:59:13;;;;;;;5.80;5.47;;;27.80;91.70;;;;;;4987721;28;20254;-53
2023/06/08 12:04:35;;;;;;;5.97;5.18;;;27.70;93.00;;;;;;5085436;28;20985;-53
2023/06/08 12:07:09;;;;;;;5.57;5.13;;;27.80;94.30;;;;;;5069243;28;20223;-54
2023/06/08 12:09:36;;;;;;;5.68;5.28;;;27.80;93.70;;;;;;5063970;28;20209;-53
2023/06/08 12:12:08;;;;;;;6.53;6.05;;;27.90;94.00;;;;;;5066872;28;20270;-53
2023/06/08 12:14:36;;;;;;;5.30;5.00;;;27.80;91.80;;;;;;5064582;28;20201;-53
2023/06/08 12:17:05;;;;;;;5.32;4.93;;;27.60;92.30;;;;;;5068068;28;20600;-53
2023/06/08 12:19:33;;;;;;;5.50;5.10;;;27.70;92.20;;;;;;5065952;28;20642;-53
2023/06/08 12:22:00;;;;;;;6.50;6.00;;;27.50;91.00;;;;;;5059933;28;20640;-53
2023/06/08 12:24:27;;;;;;;5.40;4.90;;;27.40;90.70;;;;;;5056557;28;20311;-53
2023/06/08 12:26:54;;;;;;;6.65;4.63;;;27.40;90.20;;;;;;5056605;28;20206;-53
2023/06/08 12:29:21;;;;;;;9.38;5.10;;;27.50;91.40;;;;;;5059809;28;20262;-53
2023/06/08 12:31:48;;;;;;;4.88;4.68;;;27.50;89.50;;;;;;5064035;28;20226;-53
2023/06/08 12:34:17;;;;;;;5.63;5.30;;;27.50;87.80;;;;;;5063933;28;20249;-54
2023/06/08 12:36:45;;;;;;;5.38;4.95;;;27.60;88.80;;;;;;5056191;28;20205;-53
2023/06/08 12:39:13;;;;;;;5.47;5.18;;;27.70;89.40;;;;;;5061932;28;20202;-52
2023/06/08 12:41:40;;;;;;;5.57;5.13;;;27.80;91.30;;;;;;5059752;28;20225;-53
2023/06/08 12:44:07;;;;;;;5.35;5.05;;;27.60;92.20;;;;;;5062900;28;20199;-53
2023/06/08 12:46:34;;;;;;;5.00;4.63;;;27.80;86.50;;;;;;5053488;28;20995;-53
2023/06/08 12:49:01;;;;;;;5.70;5.40;;;27.90;86.80;;;;;;5065547;28;20194;-53
2023/06/08 12:51:28;;;;;;;5.65;5.18;;;27.90;90.10;;;;;;5068395;28;20229;-53
2023/06/08 12:53:56;;;;;;;6.35;5.30;;;27.90;91.40;;;;;;5066027;28;20278;-53
2023/06/08 12:56:23;;;;;;;4.80;4.60;;;28.00;88.60;;;;;;5068036;28;20201;-54
2023/06/08 12:58:51;;;;;;;5.00;4.80;;;28.00;89.30;;;;;;5063021;28;20198;-53